Time;durP1;ratioP1;P1;durP2;ratioP2;P2;SDS_P1;SDS_P2;PMS_P1;PMS_P2;Temp;Humidity;BMP_temperature;BMP_pressure;BME280_temperature;BME280_humidity;BME280_pressure;Samples;Min_cycle;Max_cycle;Signal;HPM_P1;HPM_P2
2022/04/03 00:03:30;;;;;;;9.30;4.60;;;;;;;-1.19;80.23;97997.89;219881;1274;24134;-70
2022/04/03 00:08:33;;;;;;;10.10;4.10;;;;;;;-1.22;80.25;98000.61;219631;1276;24143;-69
2022/04/03 00:13:36;;;;;;;8.90;4.00;;;;;;;-1.26;80.36;98002.63;219771;1276;24167;-69
2022/04/03 00:18:39;;;;;;;7.60;4.60;;;;;;;-1.30;80.31;98003.75;219942;1274;24193;-69
2022/04/03 00:23:42;;;;;;;7.50;3.60;;;;;;;-1.33;80.29;98003.81;220085;1274;24239;-68
2022/04/03 00:28:46;;;;;;;10.80;4.40;;;;;;;-1.35;80.20;98005.95;219725;1274;24257;-69
2022/04/03 00:33:48;;;;;;;10.50;3.90;;;;;;;-1.38;80.20;98013.11;220303;1274;23008;-69
2022/04/03 00:38:55;;;;;;;10.30;4.70;;;;;;;-1.41;80.10;98012.98;220197;1274;22750;-69
2022/04/03 00:43:59;;;;;;;10.60;4.90;;;;;;;-1.42;80.13;98017.63;220170;1274;22474;-69
2022/04/03 00:49:03;;;;;;;6.60;3.40;;;;;;;-1.45;80.41;98017.14;220207;1274;23016;-69
2022/04/03 00:54:16;;;;;;;8.00;4.30;;;;;;;-1.48;80.19;98017.61;220145;1274;22571;-69
2022/04/03 00:59:22;;;;;;;7.30;4.10;;;;;;;-1.52;80.14;98022.45;219959;1275;23066;-69
2022/04/03 01:04:24;;;;;;;8.10;4.20;;;;;;;-1.57;80.11;98028.70;219952;1275;22719;-69
2022/04/03 01:09:27;;;;;;;9.70;3.70;;;;;;;-1.59;80.09;98028.23;220107;1274;22475;-69
2022/04/03 01:14:43;;;;;;;8.60;3.60;;;;;;;-1.62;80.13;98030.20;219965;1274;22652;-69
2022/04/03 01:19:46;;;;;;;7.90;3.80;;;;;;;-1.65;79.92;98030.94;219921;1275;22550;-69
2022/04/03 01:24:56;;;;;;;5.00;3.10;;;;;;;-1.68;80.09;98030.17;220052;1276;22534;-68
2022/04/03 01:29:58;;;;;;;5.80;4.00;;;;;;;-1.70;79.82;98037.69;220151;1274;22495;-68
2022/04/03 01:35:01;;;;;;;7.50;3.40;;;;;;;-1.73;79.98;98043.71;219839;1274;22594;-68
2022/04/03 01:40:04;;;;;;;6.40;3.50;;;;;;;-1.76;79.99;98049.90;220360;1273;25201;-68
2022/04/03 01:45:07;;;;;;;9.00;3.80;;;;;;;-1.79;79.98;98048.77;220515;1274;22551;-67
2022/04/03 01:50:09;;;;;;;6.30;3.10;;;;;;;-1.83;79.82;98055.62;220071;1273;22762;-67
2022/04/03 01:55:11;;;;;;;8.10;3.70;;;;;;;-1.85;79.87;98062.11;220178;1274;22591;-67
2022/04/03 02:00:14;;;;;;;6.40;3.30;;;;;;;-1.87;79.77;98064.81;219825;1274;24232;-67
2022/04/03 02:05:17;;;;;;;4.90;3.40;;;;;;;-1.91;79.85;98071.08;220185;1274;22640;-67
2022/04/03 02:10:20;;;;;;;8.20;3.70;;;;;;;-1.93;79.97;98072.48;219980;1274;25644;-67
2022/04/03 02:15:23;;;;;;;7.10;3.30;;;;;;;-1.95;79.88;98073.44;220149;1275;25261;-67
2022/04/03 02:20:25;;;;;;;7.80;3.10;;;;;;;-1.97;79.96;98078.73;219586;1276;23792;-67
2022/04/03 02:25:29;;;;;;;6.10;3.20;;;;;;;-1.99;79.81;98081.83;220251;1274;25370;-67
2022/04/03 02:30:31;;;;;;;6.40;2.90;;;;;;;-2.01;79.97;98087.19;219629;1276;22608;-67
2022/04/03 02:35:34;;;;;;;7.70;2.60;;;;;;;-2.05;79.98;98087.35;220235;1274;25555;-68
2022/04/03 02:40:37;;;;;;;6.10;3.00;;;;;;;-2.09;79.93;98091.40;220200;1274;25101;-68
2022/04/03 02:45:39;;;;;;;6.20;2.90;;;;;;;-2.12;79.94;98096.24;220278;1274;22642;-68
2022/04/03 02:50:43;;;;;;;5.50;2.90;;;;;;;-2.15;80.11;98100.52;220427;1274;22629;-70
2022/04/03 02:56:00;;;;;;;4.20;2.40;;;;;;;-2.17;80.02;98102.05;220144;1274;23997;-68
2022/04/03 03:01:02;;;;;;;6.20;2.90;;;;;;;-2.21;80.00;98103.40;220070;1274;22553;-67
2022/04/03 03:06:05;;;;;;;5.90;3.40;;;;;;;-2.24;79.98;98110.58;219988;1274;23147;-68
2022/04/03 03:11:07;;;;;;;7.30;3.20;;;;;;;-2.26;80.17;98111.17;220223;1274;22571;-69
2022/04/03 03:16:10;;;;;;;4.80;2.50;;;;;;;-2.28;80.20;98115.10;219869;1273;22559;-68
2022/04/03 03:21:15;;;;;;;8.00;2.80;;;;;;;-2.32;80.03;98118.62;220094;1274;25331;-66
2022/04/03 03:26:18;;;;;;;4.70;2.60;;;;;;;-2.35;80.13;98127.06;220303;1273;22669;-66
2022/04/03 03:31:20;;;;;;;5.80;2.90;;;;;;;-2.40;79.98;98132.13;220319;1274;23982;-66
2022/04/03 03:36:23;;;;;;;7.30;3.40;;;;;;;-2.45;80.04;98132.26;220276;1274;22632;-68
2022/04/03 03:41:26;;;;;;;4.10;2.10;;;;;;;-2.47;79.98;98136.45;220338;1274;24448;-67
2022/04/03 03:46:31;;;;;;;7.80;2.90;;;;;;;-2.52;79.92;98139.96;220294;1272;22795;-67
2022/04/03 03:51:35;;;;;;;4.50;2.50;;;;;;;-2.56;80.00;98147.42;220118;1273;22653;-68
2022/04/03 03:56:38;;;;;;;4.90;2.70;;;;;;;-2.59;80.04;98153.38;220104;1274;24179;-68
2022/04/03 04:01:41;;;;;;;3.50;1.90;;;;;;;-2.61;80.16;98159.70;219585;1274;24198;-67
2022/04/03 04:06:43;;;;;;;4.50;2.20;;;;;;;-2.63;80.14;98167.36;219302;1278;24197;-67
2022/04/03 04:11:45;;;;;;;4.70;2.00;;;;;;;-2.65;80.04;98173.18;219696;1276;23697;-67
2022/04/03 04:16:48;;;;;;;5.80;2.70;;;;;;;-2.66;79.95;98176.86;219820;1274;24230;-68
2022/04/03 04:22:03;;;;;;;4.50;2.20;;;;;;;-2.67;80.14;98186.23;219852;1274;24266;-68
2022/04/03 04:27:24;;;;;;;3.70;2.40;;;;;;;-2.68;80.09;98189.83;219655;1275;24239;-67
2022/04/03 04:32:26;;;;;;;6.80;2.50;;;;;;;-2.69;80.04;98200.00;220210;1274;22480;-67
2022/04/03 04:37:37;;;;;;;5.80;2.40;;;;;;;-2.70;80.09;98201.39;219994;1274;24210;-67
2022/04/03 04:42:55;;;;;;;10.20;3.30;;;;;;;-2.71;80.06;98207.04;220449;1273;22591;-67
2022/04/03 04:48:00;;;;;;;6.70;3.00;;;;;;;-2.69;80.01;98212.95;219763;1274;24181;-68
2022/04/03 04:53:05;;;;;;;7.10;3.40;;;;;;;-2.66;80.08;98221.45;219971;1274;26189;-68
2022/04/03 04:58:10;;;;;;;4.70;2.70;;;;;;;-2.65;79.93;98230.55;219869;1274;23119;-69
2022/04/03 05:03:19;;;;;;;5.20;3.40;;;;;;;-2.64;79.99;98234.52;219780;1274;22693;-68
2022/04/03 05:08:36;;;;;;;3.90;3.10;;;;;;;-2.62;79.87;98238.94;219957;1275;24269;-68
2022/04/03 05:13:53;;;;;;;11.10;3.70;;;;;;;-2.56;79.93;98236.48;219875;1274;22801;-68
2022/04/03 05:18:58;;;;;;;8.90;3.90;;;;;;;-2.51;79.78;98242.92;220380;1274;24271;-68
2022/04/03 05:24:00;;;;;;;7.80;3.50;;;;;;;-2.44;79.69;98254.56;219788;1274;22734;-69
2022/04/03 05:29:03;;;;;;;8.80;3.60;;;;;;;-2.40;79.45;98259.01;219806;1273;22538;-68
2022/04/03 05:34:06;;;;;;;6.30;3.70;;;;;;;-2.33;79.43;98266.48;220334;1273;23930;-68
2022/04/03 05:39:09;;;;;;;6.80;3.80;;;;;;;-2.23;79.35;98271.23;220009;1273;23848;-68
2022/04/03 05:44:12;;;;;;;5.80;3.10;;;;;;;-2.16;79.35;98274.06;220039;1273;22871;-68
2022/04/03 05:49:18;;;;;;;6.60;3.80;;;;;;;-2.08;79.03;98281.23;220294;1273;24210;-69
2022/04/03 05:54:21;;;;;;;9.30;3.50;;;;;;;-1.97;79.09;98285.86;220162;1273;24579;-69
2022/04/03 05:59:23;;;;;;;6.50;3.40;;;;;;;-1.89;78.70;98288.12;220170;1274;24240;-69
2022/04/03 06:04:31;;;;;;;6.00;3.90;;;;;;;-1.80;78.77;98295.09;219995;1274;22753;-69
2022/04/03 06:09:49;;;;;;;7.10;3.40;;;;;;;-1.74;78.34;98298.78;220133;1274;24331;-69
2022/04/03 06:15:04;;;;;;;6.30;3.40;;;;;;;-1.69;78.11;98306.64;219770;1274;22564;-69
2022/04/03 06:20:19;;;;;;;6.30;3.30;;;;;;;-1.63;77.74;98316.07;219837;1274;22618;-68
2022/04/03 06:25:47;;;;;;;7.00;3.90;;;;;;;-1.61;77.62;98325.49;219911;1275;23379;-68
2022/04/03 06:30:56;;;;;;;5.70;3.40;;;;;;;-1.53;77.18;98334.13;220022;1273;22801;-68
2022/04/03 06:36:00;;;;;;;7.30;3.70;;;;;;;-1.44;77.25;98336.13;220160;1273;26138;-68
2022/04/03 06:41:04;;;;;;;6.70;3.50;;;;;;;-1.33;77.30;98343.44;220141;1273;22685;-69
2022/04/03 06:46:10;;;;;;;6.20;3.90;;;;;;;-1.22;77.05;98347.71;220176;1273;22625;-69
2022/04/03 06:51:12;;;;;;;6.50;3.30;;;;;;;-1.13;76.77;98348.31;220319;1273;22687;-69
2022/04/03 06:56:14;;;;;;;7.60;4.30;;;;;;;-1.01;76.70;98355.09;220262;1273;22666;-69
2022/04/03 07:01:19;;;;;;;9.90;4.30;;;;;;;-0.93;76.22;98359.66;220121;1274;22723;-69
2022/04/03 07:06:22;;;;;;;7.90;4.30;;;;;;;-0.84;76.06;98374.14;219844;1274;24213;-69
2022/04/03 07:11:24;;;;;;;7.10;4.10;;;;;;;-0.76;76.21;98378.04;220096;1274;22733;-70
2022/04/03 07:16:27;;;;;;;5.50;4.10;;;;;;;-0.65;76.17;98380.11;219876;1274;24217;-70
2022/04/03 07:21:30;;;;;;;8.50;4.40;;;;;;;-0.58;75.56;98384.05;220270;1274;24186;-69
2022/04/03 07:26:33;;;;;;;8.80;5.00;;;;;;;-0.52;75.36;98389.91;219704;1273;569921;-70
2022/04/03 07:31:36;;;;;;;6.00;4.30;;;;;;;-0.45;75.43;98397.99;221116;1273;24138;-69
2022/04/03 07:36:41;;;;;;;7.00;4.30;;;;;;;-0.43;74.99;98408.48;221107;1273;23826;-70
2022/04/03 07:41:46;;;;;;;6.90;4.70;;;;;;;-0.31;75.20;98410.46;220957;1274;22906;-71
2022/04/03 07:46:49;;;;;;;7.30;4.70;;;;;;;-0.13;74.89;98417.58;221263;1273;22553;-70
2022/04/03 07:51:52;;;;;;;6.60;4.60;;;;;;;0.08;74.88;98424.51;220998;1273;24214;-69
2022/04/03 07:57:01;;;;;;;12.10;5.60;;;;;;;0.23;74.30;98431.98;220175;1273;22607;-70
2022/04/03 08:02:03;;;;;;;5.50;3.60;;;;;;;0.39;74.66;98433.61;220251;1273;23345;-70
2022/04/03 08:07:06;;;;;;;6.20;3.90;;;;;;;0.42;73.63;98440.33;219722;1274;24365;-71
2022/04/03 08:12:08;;;;;;;6.70;4.40;;;;;;;0.41;73.47;98448.41;221051;1273;25390;-71
2022/04/03 08:17:18;;;;;;;7.70;4.90;;;;;;;0.45;73.51;98451.91;221257;1273;25911;-71
2022/04/03 08:22:20;;;;;;;8.90;5.80;;;;;;;0.55;73.35;98451.99;220920;1274;22561;-71
2022/04/03 08:27:24;;;;;;;10.80;4.90;;;;;;;0.74;73.80;98456.91;221232;1274;25416;-71
2022/04/03 08:32:26;;;;;;;7.70;4.50;;;;;;;0.95;73.05;98458.18;221189;1273;22582;-71
2022/04/03 08:37:29;;;;;;;6.80;4.50;;;;;;;1.04;72.43;98459.75;221224;1272;25294;-71
2022/04/03 08:42:31;;;;;;;6.40;3.40;;;;;;;1.20;72.51;98464.95;221181;1273;22568;-71
2022/04/03 08:47:43;;;;;;;9.60;4.90;;;;;;;1.30;71.95;98472.17;220923;1273;22582;-72
2022/04/03 08:52:51;;;;;;;5.80;4.10;;;;;;;1.42;71.88;98472.34;221135;1273;24179;-71
2022/04/03 08:57:54;;;;;;;5.50;4.20;;;;;;;1.50;71.53;98475.77;220924;1274;25336;-70
2022/04/03 09:02:57;;;;;;;7.70;3.80;;;;;;;1.66;71.68;98483.96;220679;1274;22676;-72
2022/04/03 09:08:01;;;;;;;7.00;4.00;;;;;;;1.74;70.57;98491.75;220757;1274;23873;-72
2022/04/03 09:13:04;;;;;;;6.90;4.60;;;;;;;1.81;70.15;98493.09;220953;1274;22535;-72
2022/04/03 09:18:12;;;;;;;6.50;3.70;;;;;;;1.83;69.27;98498.48;220865;1274;22560;-71
2022/04/03 09:23:57;;;;;;;7.60;4.50;;;;;;;1.90;69.77;98500.39;220885;1274;22572;-73
2022/04/03 09:29:15;;;;;;;9.00;4.20;;;;;;;2.11;68.88;98504.08;221143;1273;24232;-72
2022/04/03 09:34:19;;;;;;;6.60;3.50;;;;;;;2.23;68.12;98510.92;221046;1273;24290;-72
2022/04/03 09:39:24;;;;;;;6.80;4.10;;;;;;;2.45;67.86;98514.11;220948;1273;22690;-72
2022/04/03 09:44:32;;;;;;;5.50;3.70;;;;;;;2.74;67.88;98516.28;221200;1273;24307;-71
2022/04/03 09:49:37;;;;;;;7.30;4.50;;;;;;;2.99;67.00;98528.31;220811;1274;22530;-72
2022/04/03 09:54:40;;;;;;;4.90;3.60;;;;;;;3.18;66.30;98530.30;221242;1273;22501;-72
2022/04/03 09:59:53;;;;;;;7.80;3.90;;;;;;;3.30;66.06;98533.36;221188;1274;22659;-72
2022/04/03 10:05:02;;;;;;;4.50;3.40;;;;;;;3.27;65.86;98534.80;220464;1276;25302;-72
2022/04/03 10:10:05;;;;;;;5.40;3.80;;;;;;;3.43;65.51;98537.15;220964;1274;22475;-71
2022/04/03 10:15:08;;;;;;;6.80;4.40;;;;;;;3.50;65.23;98539.26;220749;1274;25302;-71
2022/04/03 10:20:24;;;;;;;6.60;3.70;;;;;;;3.57;65.00;98538.39;220759;1274;22485;-71
2022/04/03 10:25:30;;;;;;;4.20;3.20;;;;;;;3.73;63.70;98541.48;221031;1274;22685;-71
2022/04/03 10:30:59;;;;;;;4.50;3.30;;;;;;;3.88;63.32;98539.52;221286;1273;22479;-71
2022/04/03 10:36:11;;;;;;;7.00;3.50;;;;;;;3.86;61.82;98542.73;221173;1273;24176;-71
2022/04/03 10:41:35;;;;;;;5.40;3.60;;;;;;;3.68;61.49;98544.64;221299;1272;24177;-71
2022/04/03 10:47:05;;;;;;;5.70;3.50;;;;;;;3.45;60.89;98544.92;221206;1273;23806;-70
2022/04/03 10:52:38;;;;;;;;;;;;;;;3.23;60.48;98542.80;221276;1271;22671;-71
2022/04/03 10:58:03;;;;;;;4.00;2.80;;;;;;;3.07;60.13;98544.66;221081;1274;25443;-71
2022/04/03 11:03:20;;;;;;;9.40;3.00;;;;;;;3.05;60.47;98555.20;220788;1274;25397;-71
2022/04/03 11:08:53;;;;;;;4.50;3.40;;;;;;;3.12;60.16;98554.16;221185;1274;23118;-71
2022/04/03 11:13:57;;;;;;;5.40;3.70;;;;;;;3.31;60.32;98553.27;221360;1274;22910;-71
2022/04/03 11:19:04;;;;;;;5.70;2.60;;;;;;;3.43;59.19;98561.96;221048;1274;22681;-70
2022/04/03 11:24:13;;;;;;;5.00;3.50;;;;;;;3.46;58.24;98567.13;221125;1274;22562;-72
2022/04/03 11:29:16;;;;;;;4.60;2.90;;;;;;;3.37;57.71;98574.70;221534;1273;22473;-72
2022/04/03 11:34:19;;;;;;;5.30;3.50;;;;;;;3.28;58.02;98572.45;221188;1273;22473;-72
2022/04/03 11:39:22;;;;;;;6.20;3.20;;;;;;;3.26;58.27;98575.15;221150;1272;24140;-71
2022/04/03 11:44:29;;;;;;;4.30;2.80;;;;;;;3.31;58.27;98573.25;221540;1273;22480;-71
2022/04/03 11:49:44;;;;;;;5.60;3.30;;;;;;;3.32;57.19;98569.86;221165;1273;22575;-71
2022/04/03 11:54:58;;;;;;;4.70;3.40;;;;;;;3.46;57.68;98563.00;219788;1274;25354;-70
2022/04/03 12:00:00;;;;;;;4.20;3.10;;;;;;;3.59;57.58;98563.47;220508;1276;22537;-70
2022/04/03 12:05:03;;;;;;;3.10;2.70;;;;;;;3.41;56.98;98565.11;220966;1274;22629;-71
2022/04/03 12:10:05;;;;;;;5.10;3.60;;;;;;;2.93;56.48;98572.42;221126;1274;22501;-72
2022/04/03 12:15:12;;;;;;;5.40;3.30;;;;;;;2.42;58.08;98570.11;221154;1274;22621;-71
2022/04/03 12:20:15;;;;;;;5.90;4.00;;;;;;;2.10;59.44;98570.53;221161;1274;22530;-72
2022/04/03 12:25:19;;;;;;;4.20;3.10;;;;;;;2.00;59.89;98574.59;221243;1274;22686;-72
2022/04/03 12:30:29;;;;;;;5.40;3.40;;;;;;;2.01;59.96;98578.36;221138;1273;22535;-72
2022/04/03 12:35:32;;;;;;;5.50;3.50;;;;;;;2.09;59.91;98578.44;221056;1274;22686;-72
2022/04/03 12:40:58;;;;;;;4.20;3.20;;;;;;;2.27;60.35;98579.38;221012;1273;22480;-72
2022/04/03 12:46:00;;;;;;;5.20;3.50;;;;;;;2.56;60.17;98576.52;221426;1273;22567;-70
2022/04/03 12:51:10;;;;;;;3.30;2.70;;;;;;;2.91;59.56;98581.60;220285;1273;22490;-71
2022/04/03 12:56:16;;;;;;;5.10;2.60;;;;;;;3.18;58.54;98576.21;220167;1273;23823;-71
2022/04/03 13:01:25;;;;;;;3.30;2.10;;;;;;;3.07;57.00;98583.51;219948;1272;22665;-71
2022/04/03 13:06:28;;;;;;;2.90;2.20;;;;;;;2.72;57.26;98589.64;221305;1273;24378;-70
2022/04/03 13:11:37;;;;;;;3.80;2.50;;;;;;;2.51;57.33;98589.52;221202;1273;23335;-72
2022/04/03 13:16:40;;;;;;;3.50;2.30;;;;;;;2.46;57.08;98579.65;221323;1273;22490;-71
2022/04/03 13:21:43;;;;;;;3.10;2.30;;;;;;;2.55;57.29;98578.78;221279;1272;22557;-71
2022/04/03 13:26:45;;;;;;;4.20;2.60;;;;;;;2.72;56.94;98575.77;221318;1273;22493;-71
2022/04/03 13:31:49;;;;;;;4.30;2.00;;;;;;;2.82;56.26;98574.50;221308;1273;22597;-71
2022/04/03 13:36:52;;;;;;;6.40;3.00;;;;;;;2.94;56.16;98572.27;221145;1273;22616;-71
2022/04/03 13:41:55;;;;;;;3.50;2.70;;;;;;;3.02;56.19;98571.29;221010;1274;22701;-71
2022/04/03 13:46:57;;;;;;;6.40;3.30;;;;;;;3.05;56.56;98570.84;221214;1274;22570;-71
2022/04/03 13:52:04;;;;;;;6.60;3.50;;;;;;;3.08;57.07;98569.46;220997;1274;23040;-72
2022/04/03 13:57:06;;;;;;;4.90;3.00;;;;;;;3.02;56.97;98576.67;221112;1274;22908;-71
2022/04/03 14:02:09;;;;;;;4.80;3.00;;;;;;;2.90;56.23;98576.09;220794;1274;23201;-70
2022/04/03 14:07:20;;;;;;;6.30;3.20;;;;;;;2.76;56.16;98575.41;220392;1273;25289;-71
2022/04/03 14:12:26;;;;;;;6.30;3.60;;;;;;;2.68;56.68;98580.58;221084;1274;22706;-71
2022/04/03 14:17:31;;;;;;;4.90;3.00;;;;;;;2.59;56.47;98574.13;220765;1276;22528;-71
2022/04/03 14:22:34;;;;;;;3.60;2.80;;;;;;;2.52;56.70;98577.94;221023;1274;23045;-71
2022/04/03 14:27:37;;;;;;;4.10;2.70;;;;;;;2.44;56.56;98574.33;221260;1273;22589;-72
2022/04/03 14:32:46;;;;;;;3.80;2.20;;;;;;;2.48;56.64;98575.77;221191;1273;22738;-70
2022/04/03 14:37:48;;;;;;;3.60;2.30;;;;;;;2.63;56.08;98581.39;221158;1274;22557;-70
2022/04/03 14:42:51;;;;;;;2.90;2.10;;;;;;;2.75;54.77;98579.71;221310;1273;25374;-70
2022/04/03 14:47:54;;;;;;;3.00;2.10;;;;;;;2.75;54.12;98582.64;221223;1273;22578;-71
2022/04/03 14:52:57;;;;;;;3.80;2.60;;;;;;;2.69;53.65;98587.46;221055;1273;23343;-70
2022/04/03 14:57:59;;;;;;;3.10;2.20;;;;;;;2.64;53.95;98585.43;220463;1273;22588;-70
2022/04/03 15:03:03;;;;;;;3.20;2.40;;;;;;;2.65;53.59;98585.55;221529;1273;22595;-71
2022/04/03 15:08:07;;;;;;;2.70;1.90;;;;;;;2.51;53.79;98585.07;221622;1273;22545;-70
2022/04/03 15:13:13;;;;;;;3.10;2.00;;;;;;;2.33;54.04;98587.05;221439;1273;22814;-70
2022/04/03 15:18:15;;;;;;;3.10;2.20;;;;;;;2.18;53.70;98587.43;221486;1273;23585;-70
2022/04/03 15:23:24;;;;;;;3.40;2.20;;;;;;;2.05;53.75;98591.13;221371;1273;23161;-70
2022/04/03 15:28:26;;;;;;;4.60;2.60;;;;;;;2.02;54.33;98594.54;220599;1273;23331;-70
2022/04/03 15:33:30;;;;;;;3.00;2.40;;;;;;;1.99;54.16;98600.52;220379;1273;24308;-71
2022/04/03 15:38:40;;;;;;;3.80;2.50;;;;;;;1.94;54.11;98603.92;221156;1274;22522;-70
2022/04/03 15:43:45;;;;;;;2.90;2.40;;;;;;;1.86;54.66;98606.29;221425;1273;23464;-70
2022/04/03 15:48:51;;;;;;;4.10;2.50;;;;;;;1.79;54.74;98606.44;221393;1273;23808;-70
2022/04/03 15:53:55;;;;;;;3.60;2.80;;;;;;;1.74;54.70;98612.79;221159;1273;23462;-70
2022/04/03 15:58:57;;;;;;;3.80;2.60;;;;;;;1.70;55.04;98610.38;221301;1273;23986;-70
2022/04/03 16:04:04;;;;;;;5.00;3.00;;;;;;;1.67;55.57;98615.70;221430;1273;22527;-70
2022/04/03 16:09:06;;;;;;;5.90;2.90;;;;;;;1.62;55.44;98619.45;221703;1273;24113;-70
2022/04/03 16:14:16;;;;;;;5.30;2.90;;;;;;;1.49;55.36;98629.65;221298;1273;22554;-70
2022/04/03 16:19:23;;;;;;;4.40;2.60;;;;;;;1.38;55.82;98630.58;221242;1273;22561;-71
2022/04/03 16:24:28;;;;;;;4.70;2.60;;;;;;;1.33;55.64;98634.64;220988;1273;23863;-70
2022/04/03 16:29:31;;;;;;;3.20;2.10;;;;;;;1.25;56.17;98636.58;220376;1273;22565;-70
2022/04/03 16:34:34;;;;;;;3.90;2.50;;;;;;;1.16;56.06;98639.77;221204;1273;24281;-70
2022/04/03 16:39:37;;;;;;;4.90;2.70;;;;;;;1.11;56.98;98641.41;220885;1273;22574;-70
2022/04/03 16:44:40;;;;;;;6.50;3.80;;;;;;;1.08;56.91;98645.20;220894;1275;24268;-70
2022/04/03 16:49:43;;;;;;;5.30;3.00;;;;;;;1.05;57.29;98644.69;221122;1273;24406;-70
2022/04/03 16:54:48;;;;;;;5.60;3.20;;;;;;;0.99;57.41;98649.94;221287;1273;22585;-70
2022/04/03 17:00:13;;;;;;;5.30;3.10;;;;;;;0.94;57.48;98652.83;221134;1273;23698;-70
2022/04/03 17:05:38;;;;;;;6.40;3.30;;;;;;;0.87;57.65;98652.45;221287;1273;22677;-70
2022/04/03 17:10:43;;;;;;;5.70;3.60;;;;;;;0.82;58.02;98649.95;221172;1273;25358;-70
2022/04/03 17:15:48;;;;;;;6.30;3.40;;;;;;;0.78;58.40;98651.81;221347;1273;22612;-71
2022/04/03 17:20:53;;;;;;;7.50;3.80;;;;;;;0.72;58.65;98664.12;220982;1274;22483;-70
2022/04/03 17:25:56;;;;;;;7.80;3.90;;;;;;;0.65;58.75;98667.50;221485;1273;22554;-69
2022/04/03 17:31:01;;;;;;;10.30;5.90;;;;;;;0.59;58.92;98673.60;221240;1273;22673;-70
2022/04/03 17:36:04;;;;;;;14.20;7.40;;;;;;;0.56;59.50;98676.48;221104;1274;23729;-70
2022/04/03 17:41:18;;;;;;;11.60;6.40;;;;;;;0.56;60.00;98688.40;221418;1273;25866;-70
2022/04/03 17:46:20;;;;;;;9.70;5.90;;;;;;;0.57;60.52;98694.80;221305;1273;22479;-70
2022/04/03 17:51:22;;;;;;;8.00;5.40;;;;;;;0.61;60.72;98701.61;220792;1274;22531;-69
2022/04/03 17:56:26;;;;;;;7.50;4.40;;;;;;;0.61;60.43;98706.31;220091;1271;24191;-70
2022/04/03 18:01:28;;;;;;;10.10;4.90;;;;;;;0.60;59.95;98710.61;221350;1273;22727;-70
2022/04/03 18:06:33;;;;;;;9.90;5.60;;;;;;;0.59;60.05;98717.69;221384;1273;22607;-70
2022/04/03 18:11:37;;;;;;;11.30;6.50;;;;;;;0.55;59.50;98718.79;221371;1273;22485;-71
2022/04/03 18:16:39;;;;;;;13.70;7.20;;;;;;;0.49;59.96;98723.57;221062;1273;22494;-70
2022/04/03 18:21:42;;;;;;;23.50;11.40;;;;;;;0.46;59.66;98723.64;221374;1273;22610;-70
2022/04/03 18:26:45;;;;;;;25.20;13.60;;;;;;;0.47;60.21;98730.83;221423;1273;22585;-70
2022/04/03 18:31:51;;;;;;;21.20;10.90;;;;;;;0.48;60.20;98727.89;220198;1273;22592;-68
2022/04/03 18:36:54;;;;;;;14.30;8.10;;;;;;;0.47;60.47;98733.25;220210;1273;22661;-70
2022/04/03 18:41:57;;;;;;;15.20;9.20;;;;;;;0.43;60.60;98740.01;220228;1273;22523;-70
2022/04/03 18:47:00;;;;;;;10.80;6.90;;;;;;;0.43;61.23;98738.73;221383;1273;22997;-70
2022/04/03 18:52:03;;;;;;;11.20;5.70;;;;;;;0.43;60.83;98739.15;221056;1273;22642;-69
2022/04/03 18:57:06;;;;;;;13.10;7.40;;;;;;;0.39;60.92;98743.85;220353;1273;25348;-69
2022/04/03 19:02:08;;;;;;;13.90;8.00;;;;;;;0.37;60.82;98743.80;220501;1273;24308;-69
2022/04/03 19:07:10;;;;;;;17.60;8.10;;;;;;;0.33;60.83;98743.27;219817;1275;25284;-69
2022/04/03 19:12:13;;;;;;;15.40;7.80;;;;;;;0.26;60.98;98737.50;220210;1273;25271;-70
2022/04/03 19:17:16;;;;;;;16.50;8.20;;;;;;;0.14;61.14;98739.46;220316;1273;22613;-70
2022/04/03 19:22:19;;;;;;;16.60;9.00;;;;;;;0.09;61.60;98744.91;220464;1273;22479;-69
2022/04/03 19:27:22;;;;;;;18.10;9.40;;;;;;;0.06;61.96;98744.14;220054;1273;308866;-69
2022/04/03 19:32:24;;;;;;;18.50;9.40;;;;;;;0.05;62.24;98750.91;220347;1273;25249;-69
2022/04/03 19:37:27;;;;;;;14.20;8.10;;;;;;;0.01;62.10;98752.14;220405;1274;24878;-70
2022/04/03 19:42:31;;;;;;;15.80;7.90;;;;;;;-0.04;62.30;98745.55;220091;1273;25411;-71
2022/04/03 19:47:33;;;;;;;12.80;7.50;;;;;;;-0.09;62.54;98745.03;220068;1273;22811;-70
2022/04/03 19:52:39;;;;;;;15.90;7.40;;;;;;;-0.10;62.65;98747.60;219963;1273;25263;-70
2022/04/03 19:57:41;;;;;;;12.00;6.10;;;;;;;-0.12;62.93;98746.16;221165;1273;25365;-70
2022/04/03 20:02:46;;;;;;;12.20;5.50;;;;;;;-0.16;63.22;98747.16;221221;1273;22621;-70
2022/04/03 20:07:49;;;;;;;11.30;5.90;;;;;;;-0.20;63.40;98745.52;221343;1273;22578;-69
2022/04/03 20:12:51;;;;;;;10.80;5.90;;;;;;;-0.21;63.65;98747.75;220411;1274;22539;-70
2022/04/03 20:17:54;;;;;;;11.20;5.70;;;;;;;-0.20;63.98;98754.73;220324;1273;22703;-70
2022/04/03 20:23:15;;;;;;;12.90;5.60;;;;;;;-0.17;64.10;98756.14;220238;1274;22730;-70
2022/04/03 20:28:19;;;;;;;15.50;8.50;;;;;;;-0.17;64.32;98754.56;220334;1274;22577;-71
2022/04/03 20:33:22;;;;;;;16.00;8.00;;;;;;;-0.17;64.17;98758.77;221394;1273;23822;-70
2022/04/03 20:38:26;;;;;;;17.60;8.60;;;;;;;-0.16;64.42;98762.15;220972;1274;22564;-70
2022/04/03 20:43:30;;;;;;;16.80;8.20;;;;;;;-0.16;64.77;98765.06;220204;1273;23868;-70
2022/04/03 20:48:33;;;;;;;15.30;8.00;;;;;;;-0.15;64.77;98763.48;220334;1275;22607;-71
2022/04/03 20:53:36;;;;;;;10.00;6.40;;;;;;;-0.13;65.32;98761.77;220417;1273;23677;-71
2022/04/03 20:58:39;;;;;;;12.00;5.70;;;;;;;-0.14;65.36;98763.39;220132;1274;22487;-70
2022/04/03 21:03:42;;;;;;;14.10;5.90;;;;;;;-0.19;65.06;98766.45;220505;1273;22613;-70
2022/04/03 21:08:44;;;;;;;11.60;5.90;;;;;;;-0.22;65.49;98768.95;220220;1273;22483;-70
2022/04/03 21:13:46;;;;;;;9.30;4.90;;;;;;;-0.23;65.51;98764.70;220247;1273;24244;-71
2022/04/03 21:18:49;;;;;;;9.10;4.60;;;;;;;-0.25;65.57;98765.77;219805;1274;22963;-70
2022/04/03 21:23:51;;;;;;;9.80;5.90;;;;;;;-0.30;65.64;98765.08;221350;1274;22477;-70
2022/04/03 21:28:55;;;;;;;12.20;6.00;;;;;;;-0.31;65.98;98765.14;220288;1274;22565;-70
2022/04/03 21:33:57;;;;;;;12.80;5.60;;;;;;;-0.35;66.04;98760.20;219800;1273;25349;-69
2022/04/03 21:39:00;;;;;;;12.00;5.30;;;;;;;-0.42;66.33;98761.60;220191;1274;23974;-69
2022/04/03 21:44:03;;;;;;;10.40;6.10;;;;;;;-0.47;66.23;98763.88;220157;1274;22625;-70
2022/04/03 21:49:05;;;;;;;12.80;5.20;;;;;;;-0.50;66.73;98757.25;220220;1272;22471;-70
2022/04/03 21:54:07;;;;;;;11.50;5.50;;;;;;;-0.54;66.74;98760.09;220452;1274;22578;-70
2022/04/03 21:59:10;;;;;;;9.70;5.50;;;;;;;-0.57;66.93;98755.45;220489;1274;22733;-70
2022/04/03 22:04:12;;;;;;;10.70;6.40;;;;;;;-0.62;67.09;98752.21;221635;1274;22487;-70
2022/04/03 22:09:15;;;;;;;12.70;5.80;;;;;;;-0.62;67.26;98758.61;220303;1274;22620;-69
2022/04/03 22:14:18;;;;;;;11.80;5.90;;;;;;;-0.62;67.24;98756.95;220269;1273;22704;-70
2022/04/03 22:19:21;;;;;;;14.00;5.80;;;;;;;-0.60;67.19;98760.91;220282;1274;25483;-69
2022/04/03 22:24:23;;;;;;;11.90;6.40;;;;;;;-0.58;67.36;98762.06;220382;1274;22641;-69
2022/04/03 22:29:40;;;;;;;12.40;7.10;;;;;;;-0.56;67.50;98762.70;220361;1274;22696;-70
2022/04/03 22:35:00;;;;;;;12.10;6.10;;;;;;;-0.51;67.55;98762.13;220235;1274;22767;-69
2022/04/03 22:40:03;;;;;;;14.60;8.00;;;;;;;-0.50;67.40;98755.32;220170;1274;22527;-69
2022/04/03 22:45:10;;;;;;;16.50;7.60;;;;;;;-0.49;67.39;98753.98;220372;1274;22513;-70
2022/04/03 22:50:14;;;;;;;12.70;7.00;;;;;;;-0.52;67.51;98754.08;220252;1274;22561;-69
2022/04/03 22:55:24;;;;;;;14.70;7.10;;;;;;;-0.58;67.65;98753.45;220455;1274;25344;-69
2022/04/03 23:00:28;;;;;;;14.80;7.30;;;;;;;-0.58;67.63;98752.11;220468;1273;22519;-69
2022/04/03 23:05:30;;;;;;;13.30;7.10;;;;;;;-0.60;67.88;98750.70;220407;1274;22577;-69
2022/04/03 23:10:32;;;;;;;15.40;8.00;;;;;;;-0.61;67.84;98747.84;220424;1274;25891;-70
2022/04/03 23:15:37;;;;;;;14.60;7.90;;;;;;;-0.58;67.86;98747.29;220345;1274;22499;-70
2022/04/03 23:20:43;;;;;;;13.60;7.80;;;;;;;-0.56;67.78;98743.91;220457;1274;25892;-70
2022/04/03 23:25:45;;;;;;;15.30;7.80;;;;;;;-0.59;67.94;98737.06;220402;1274;22655;-69
2022/04/03 23:30:49;;;;;;;14.50;7.60;;;;;;;-0.59;68.04;98740.22;220129;1274;25853;-69
2022/04/03 23:35:51;;;;;;;17.20;8.30;;;;;;;-0.57;68.16;98738.83;219996;1274;25316;-69
2022/04/03 23:40:54;;;;;;;10.70;6.20;;;;;;;-0.58;68.05;98733.93;219725;1274;25347;-70
2022/04/03 23:46:00;;;;;;;12.30;6.60;;;;;;;-0.61;67.95;98724.40;219505;1277;25219;-70